Latest Coastal Weather Observations for Geraldton Airport

IDW60701

Issued at 12:25 pm WST Sunday 26 October 2014 (issued every 10 minutes, with the page automatically refreshed every 10 minutes)

About coastal observations | Map of coastal stations | Coastal observations for WA | Marine services | Other Formats
Station Details ID: 008315 Name: GERALDTON AIRPORT Lat: -28.80 Lon: 114.70 Height: 29.7 m
Data from the previous 72 hours. | See also: Recent months at Geraldton Airport
Date/Time
WST
Temp

°C
Wind Pressure Rain
since 9am
mm
Weather Cloud Vis
km
Sea
Height
m
Swell
Dir
 
Speed
knots
Gust
knots
hPa Trend Height
m
Period
s
Dir
26/12:00pm 23.2 SW 12 18 1022.1 R 0.0 Fine Mostly clear 35 - - - -
26/11:30am 22.4 S 11 17 1022.5 - 0.0 - Mostly clear 10 - - - -
26/11:00am 22.3 S 14 20 1022.7 - 0.0 - Partly cloudy 10 - - - -
26/10:30am 22.2 S 12 17 1022.8 - 0.0 - Partly cloudy 10 - - - -
26/10:00am 21.2 SSW 13 19 1022.8 - 0.0 - Mostly cloudy 10 - - - -
26/09:30am 20.9 SSW 13 17 1022.8 - 0.0 - Mostly cloudy 10 - - - -
26/09:00am 21.7 S 9 13 1022.7 R 0.0 Fine Mostly cloudy 30 - - - -
26/08:30am 20.0 S 12 17 1022.5 - 0.0 - Mostly cloudy 10 - - - -
26/08:00am 20.0 SSE 10 16 1022.3 - 0.0 - Mostly cloudy 10 - - - -
26/07:30am 20.0 SE 8 11 1022.1 - 0.0 - Partly cloudy 10 - - - -
26/07:00am 18.7 E 3 6 1022.0 - 0.0 - Partly cloudy 10 - - - -
26/06:30am 17.1 NE 4 5 1021.6 - 0.0 - Partly cloudy 10 - - - -
26/06:00am 14.5 NE 4 5 1021.2 R 0.0 Fine Mostly cloudy 30 - - - -
26/05:30am 14.6 NE 3 4 1020.9 - 0.0 - - 10 - - - -
26/05:00am 15.3 ESE 4 5 1020.5 - 0.0 - Partly cloudy 10 - - - -
26/04:30am 15.9 SE 5 6 1020.4 - 0.0 - Partly cloudy 10 - - - -
26/04:00am 15.3 SSE 4 4 1020.2 - 0.0 - Partly cloudy 10 - - - -
26/03:30am 15.6 ESE 4 5 1020.2 - 0.0 - Partly cloudy 10 - - - -
26/03:00am 15.6 ESE 5 7 1020.0 - 0.0 - Cloudy 10 - - - -
26/02:30am 16.4 SE 6 9 1019.9 - 0.0 - Partly cloudy 10 - - - -
26/02:00am 17.9 S 5 7 1020.0 - 0.0 - Partly cloudy 10 - - - -
26/01:30am 18.4 S 6 9 1020.1 - 0.0 - Partly cloudy 10 - - - -
26/01:00am 18.7 SSE 6 7 1020.3 - 0.0 - Partly cloudy 10 - - - -
26/12:30am 18.5 SSE 4 5 1020.4 - 0.0 - Partly cloudy 10 - - - -
26/12:00am 18.3 SE 3 5 1020.5 - 0.0 - Cloudy 10 - - - -
 
Date/Time
WST
Temp

°C
Wind Pressure Rain
since 9am
mm
Weather Cloud Vis
km
Sea
Height
m
Swell
Dir
 
Speed
knots
Gust
knots
hPa Trend Height
m
Period
s
Dir
25/11:30pm 18.2 ESE 1 3 1020.6 - 0.0 - Partly cloudy 10 - - - -
25/11:00pm 18.1 ENE 3 5 1020.6 - 0.0 - Partly cloudy 10 - - - -
25/10:30pm 18.0 E 3 4 1020.7 - 0.0 - Cloudy 10 - - - -
25/10:00pm 17.7 ESE 1 3 1020.9 - 0.0 - Partly cloudy 10 - - - -
25/09:30pm 17.1 E 3 4 1021.1 - 0.0 - Partly cloudy 10 - - - -
25/09:00pm 16.8 S 4 5 1021.1 - 0.0 - Partly cloudy 10 - - - -
25/08:30pm 17.1 S 5 6 1020.9 - 0.0 - Partly cloudy 10 - - - -
25/08:00pm 17.2 SSW 6 7 1020.6 - 0.0 - - 10 - - - -
25/07:30pm 17.5 SSW 6 7 1020.6 - 0.0 - - 10 - - - -
25/07:00pm 18.1 SSW 7 8 1020.2 - 0.0 - - 10 - - - -
25/06:30pm 19.2 SSW 9 13 1019.9 - 0.0 - - 10 - - - -
25/06:00pm 20.2 SSW 11 15 1019.7 - 0.0 - - 10 - - - -
25/05:30pm 20.7 SSW 13 17 1019.5 - 0.0 - - 10 - - - -
25/05:00pm 21.6 SW 14 20 1019.4 - 0.0 - - 10 - - - -
25/04:30pm 21.1 SW 13 18 1019.4 - 0.0 - Partly cloudy 10 - - - -
25/04:00pm 22.5 SW 15 25 1019.4 - 0.0 - Partly cloudy 10 - - - -
25/03:54pm 23.1 SSW 15 25 1019.2 - 0.0 - Partly cloudy 10 - - - -
25/03:30pm 21.5 S 13 19 1019.3 - 0.0 - Partly cloudy 10 - - - -
25/03:00pm 23.4 SW 15 20 1019.2 - 0.0 - Cloudy 10 - - - -
25/02:30pm 22.7 SW 16 24 1019.1 - 0.0 - Partly cloudy 10 - - - -
25/02:00pm 23.4 SSW 14 20 1019.1 - 0.0 - Partly cloudy 10 - - - -
25/01:30pm 23.8 SSW 17 21 1019.3 - 0.0 - Partly cloudy 10 - - - -
25/01:00pm 22.7 SW 13 19 1019.5 - 0.0 - Partly cloudy 10 - - - -
25/12:30pm 22.2 WSW 13 22 1019.6 - 0.0 - Partly cloudy 10 - - - -
25/12:00pm 22.4 SW 13 18 1019.8 - 0.0 - Cloudy 10 - - - -
25/11:30am 22.8 SW 12 19 1019.6 - 0.0 - Partly cloudy 10 - - - -
25/11:00am 23.6 WSW 12 16 1019.7 - 0.0 - Partly cloudy 10 - - - -
25/10:30am 21.7 SSW 10 16 1019.9 - 0.0 - Partly cloudy 10 - - - -
25/10:00am 22.1 SW 12 19 1019.9 - 0.0 - Partly cloudy 10 - - - -
25/09:30am 21.7 SSW 9 12 1019.8 - 0.0 - Mostly clear 10 - - - -
25/09:00am 21.9 S 11 17 1019.6 R 0.0 Fine Mostly cloudy 30 - - - -
25/08:30am 21.4 SSW 13 17 1019.2 - 0.0 - Partly cloudy 10 - - - -
25/08:00am 21.3 S 11 15 1019.1 - 0.0 - Partly cloudy 10 - - - -
25/07:30am 19.4 SSW 10 14 1018.8 - 0.0 - Partly cloudy 10 - - - -
25/07:00am 19.5 S 7 11 1018.6 - 0.0 - Mostly clear 10 - - - -
25/06:30am 16.8 NNE 1 4 1018.2 - 0.0 - Mostly clear 10 - - - -
25/06:00am 14.5 ENE 2 4 1017.9 R 0.0 Showers Mostly cloudy 30 - - - -
25/05:30am 13.2 E 1 4 1017.5 - 0.0 - Partly cloudy 10 - - - -
25/05:00am 13.5 ESE 2 5 1017.4 - 0.0 - - 10 - - - -
25/04:30am 16.8 SSW 6 8 1017.1 - 0.0 - - 10 - - - -
25/04:00am 17.1 SSW 6 7 1017.0 - 0.0 - Partly cloudy 10 - - - -
25/03:30am 16.8 S 6 8 1016.7 - 0.0 - Partly cloudy 10 - - - -
25/03:00am 16.6 CALM 0 0 1016.5 - 0.0 - Cloudy 10 - - - -
25/02:30am 15.6 ENE 2 3 1016.4 - 0.0 - Partly cloudy 10 - - - -
25/02:00am 15.7 S 4 5 1016.2 - 0.0 - Partly cloudy 10 - - - -
25/01:30am 16.7 S 6 7 1016.0 - 0.0 - Partly cloudy 10 - - - -
25/01:00am 16.9 S 6 7 1016.2 - 0.0 - Partly cloudy 10 - - - -
25/12:30am 17.6 S 7 8 1016.2 - 0.0 - Partly cloudy 10 - - - -
25/12:00am 17.8 S 7 8 1016.2 - 0.0 - Partly cloudy 10 - - - -
 
Date/Time
WST
Temp

°C
Wind Pressure Rain
since 9am
mm
Weather Cloud Vis
km
Sea
Height
m
Swell
Dir
 
Speed
knots
Gust
knots
hPa Trend Height
m
Period
s
Dir
24/11:30pm 17.7 S 7 9 1016.2 - 0.0 - Partly cloudy 10 - - - -
24/11:00pm 18.1 S 7 9 1016.4 - 0.0 - Partly cloudy 10 - - - -
24/10:30pm 18.3 S 8 10 1016.5 - 0.0 - Partly cloudy 10 - - - -
24/10:00pm 18.5 S 8 11 1016.5 - 0.0 - Partly cloudy 10 - - - -
24/09:30pm 18.9 S 9 12 1016.6 - 0.0 - Partly cloudy 10 - - - -
24/09:00pm 19.2 SSW 10 13 1016.5 - 0.0 - Partly cloudy 10 - - - -
24/08:30pm 19.4 S 11 16 1016.3 - 0.0 - Partly cloudy 10 - - - -
24/08:00pm 19.2 S 11 15 1015.8 - 0.0 - Partly cloudy 10 - - - -
24/07:30pm 19.4 S 13 18 1015.6 - 0.0 - Partly cloudy 10 - - - -
24/07:00pm 19.6 SSW 11 15 1015.4 - 0.0 - Partly cloudy 10 - - - -
24/06:30pm 19.7 S 11 16 1015.2 - 0.0 - Partly cloudy 10 - - - -
24/06:00pm 20.4 SSW 16 20 1014.9 - 0.0 - - 10 - - - -
24/05:30pm 21.2 SSW 15 18 1014.6 - 0.0 - - 10 - - - -
24/05:00pm 21.7 S 15 19 1014.4 - 0.0 - - 10 - - - -
24/04:30pm 22.5 SSW 17 21 1014.3 - 0.0 - - 10 - - - -
24/04:00pm 22.9 SSW 16 20 1014.3 - 0.0 - - 10 - - - -
24/03:30pm 24.1 SW 14 22 1014.1 - 0.0 - - 10 - - - -
24/03:00pm 24.2 SSW 14 21 1014.2 R 0.0 Fine Partly cloudy 35 - - - -
24/02:30pm 23.9 SW 15 20 1014.3 - 0.0 - - 10 - - - -
24/02:00pm 25.3 SSW 13 17 1014.4 - 0.0 - - 10 - - - -
24/01:30pm 23.7 SSW 14 18 1014.5 - 0.0 - - 10 - - - -
24/01:00pm 24.8 SSW 13 17 1014.7 - 0.0 - - 10 - - - -
24/12:30pm 23.7 SSW 15 18 1014.9 - 0.0 - - 10 - - - -
24/12:00pm 23.2 SW 14 17 1014.9 F 0.0 Fine Mostly clear 30 - - - -
24/11:30am 23.9 SW 13 17 1015.2 - 0.0 - - 10 - - - -
24/11:00am 24.2 SW 12 15 1015.4 - 0.0 - - 10 - - - -
24/10:30am 24.3 SW 10 15 1015.6 - 0.0 - - 10 - - - -
24/10:00am 25.2 SSW 6 11 1015.9 - 0.0 - - 10 - - - -
24/09:30am 23.0 S 5 9 1016.2 - 0.0 - - 10 - - - -
24/09:00am 22.2 SSE 5 7 1016.4 F 0.2 Fine Mostly clear 30 - - - -
24/08:30am 20.6 ESE 6 9 1016.6 - 0.2 - - 10 - - - -
24/08:00am 18.9 E 7 10 1016.6 - 0.2 - - 10 - - - -
24/07:30am 17.1 ESE 6 9 1016.7 - 0.2 - - 10 - - - -
24/07:00am 15.2 SSE 3 5 1016.7 - 0.2 - - 10 - - - -
24/06:30am 12.8 CALM 0 0 1016.7 - 0.2 - Mostly clear 10 - - - -
24/06:00am 11.5 CALM 0 0 1016.5 F 0.2 Fine Partly cloudy 25 - - - -
24/05:30am 11.2 CALM 0 0 1016.4 - 0.2 - - 10 - - - -
24/05:00am 11.0 ENE 2 4 1016.3 - 0.2 - - 10 - - - -
24/04:30am 11.0 E 4 4 1016.3 - 0.2 - - 10 - - - -
24/04:00am 11.6 SE 4 5 1016.3 - 0.2 - - 10 - - - -
24/03:30am 12.0 SE 5 6 1016.4 - 0.2 - - 10 - - - -
24/03:00am 12.5 SSE 5 6 1016.3 - 0.2 - - 10 - - - -
24/02:30am 12.8 SSE 5 6 1016.5 - 0.2 - - 10 - - - -
24/02:00am 12.8 SE 6 7 1016.4 - 0.2 - - 10 - - - -
24/01:30am 12.8 SSE 6 6 1016.7 - 0.2 - - 10 - - - -
24/01:00am 13.4 SSE 6 7 1017.0 - 0.2 - - 10 - - - -
24/12:30am 13.5 SSE 7 8 1016.8 - 0.2 - - 10 - - - -
24/12:00am 14.2 SE 7 8 1016.7 - 0.2 - - 10 - - - -
 
Date/Time
WST
Temp

°C
Wind Pressure Rain
since 9am
mm
Weather Cloud Vis
km
Sea
Height
m
Swell
Dir
 
Speed
knots
Gust
knots
hPa Trend Height
m
Period
s
Dir
23/11:30pm 13.8 SE 7 8 1016.8 - 0.2 - - 10 - - - -
23/11:00pm 14.5 SE 6 7 1017.2 - 0.2 - - 10 - - - -
23/10:30pm 15.0 SE 7 8 1017.2 - 0.2 - - 10 - - - -
23/10:00pm 15.3 SSE 5 6 1017.4 - 0.2 - - 10 - - - -
23/09:30pm 16.7 SSE 6 7 1017.6 - 0.2 - - 10 - - - -
23/09:00pm 17.4 S 7 9 1017.4 F 0.2 Fine Clear 25 - - - -
23/08:30pm 17.8 S 8 11 1017.4 - 0.2 - Mostly clear 10 - - - -
23/08:00pm 18.3 S 9 12 1017.2 - 0.2 - Mostly clear 10 - - - -
23/07:30pm 18.5 S 10 13 1017.1 - 0.2 - Mostly clear 10 - - - -
23/07:00pm 18.9 S 9 13 1017.0 - 0.2 - Mostly clear 10 - - - -
23/06:30pm 19.5 S 12 15 1016.9 - 0.2 - Mostly clear 10 - - - -
23/06:00pm 20.4 S 11 16 1016.5 F 0.2 Fine Mostly clear 30 - - - -
23/05:30pm 21.1 S 11 16 1016.4 - 0.2 - Mostly clear 10 - - - -
23/05:00pm 21.8 S 12 15 1016.3 - 0.2 - Mostly clear 10 - - - -
23/04:30pm 22.3 S 13 19 1016.2 - 0.2 - Partly cloudy 10 - - - -
23/04:00pm 22.9 SSW 13 18 1016.3 - 0.2 - Partly cloudy 10 - - - -
23/03:30pm 22.4 SW 13 18 1016.4 - 0.2 - Partly cloudy 10 - - - -
23/03:00pm 23.1 WSW 15 19 1016.1 R 0.2 Fine Mostly clear 30 - - - -
23/02:30pm 23.7 WSW 13 16 1016.3 - 0.2 - Mostly clear 10 - - - -
23/02:00pm 24.0 WSW 13 16 1016.4 - 0.2 - Mostly clear 10 - - - -
23/01:30pm 24.2 SW 11 16 1016.5 - 0.2 - Mostly clear 10 - - - -
23/01:00pm 24.0 W 10 15 1016.7 - 0.2 - Mostly clear 10 - - - -
23/12:30pm 23.4 W 11 17 1016.9 - 0.2 - Partly cloudy 10 - - - -

Other Formats:

Comma delimited format used in spreadsheet applications
http://www.bom.gov.au/fwo/IDW60701/IDW60701.94403.axf

JavaScript Object Notation format (JSON) in row-major order
http://www.bom.gov.au/fwo/IDW60701/IDW60701.94403.json